createdAt,value
2019-02-04T00:02:05.238Z,6.00
2019-02-04T00:04:35.004Z,6.70
2019-02-04T00:07:04.735Z,6.97
2019-02-04T00:09:36.127Z,6.28
2019-02-04T00:12:05.847Z,6.87
2019-02-04T00:14:35.806Z,6.28
2019-02-04T00:17:05.546Z,6.45
2019-02-04T00:19:35.283Z,6.50
2019-02-04T00:22:05.542Z,6.37
2019-02-04T00:24:35.270Z,6.22
2019-02-04T00:27:05.033Z,5.72
2019-02-04T00:29:34.696Z,6.22
2019-02-04T00:32:04.431Z,5.85
2019-02-04T00:34:34.208Z,6.70
2019-02-04T00:37:04.365Z,6.40
2019-02-04T00:39:34.110Z,6.62
2019-02-04T00:42:03.875Z,6.55
2019-02-04T00:44:33.604Z,6.62
2019-02-04T00:47:03.390Z,6.62
2019-02-04T00:49:33.159Z,6.08
2019-02-04T00:52:03.183Z,5.90
2019-02-04T00:54:32.982Z,6.78
2019-02-04T00:57:02.731Z,6.50
2019-02-04T00:59:32.477Z,6.62
2019-02-04T01:02:02.263Z,6.47
2019-02-04T01:04:31.999Z,6.80
2019-02-04T01:07:01.833Z,6.30
2019-02-04T01:09:31.570Z,6.42
2019-02-04T01:12:01.327Z,6.08
2019-02-04T01:14:31.081Z,5.97
2019-02-04T01:17:03.453Z,6.35
2019-02-04T01:19:32.194Z,6.45
2019-02-04T01:22:01.857Z,6.67
2019-02-04T01:24:31.620Z,6.75
2019-02-04T01:27:01.358Z,7.05
2019-02-04T01:29:31.185Z,7.42
2019-02-04T01:32:01.227Z,6.62
2019-02-04T01:34:30.979Z,6.65
2019-02-04T01:37:00.718Z,6.70
2019-02-04T01:39:30.475Z,6.65
2019-02-04T01:42:00.228Z,6.65
2019-02-04T01:44:29.976Z,6.87
2019-02-04T01:46:59.711Z,6.40
2019-02-04T01:49:29.469Z,6.40
2019-02-04T01:51:59.256Z,6.33
2019-02-04T01:54:28.939Z,6.20
2019-02-04T01:56:58.672Z,6.67
2019-02-04T01:59:28.840Z,6.92
2019-02-04T02:01:58.569Z,6.12
2019-02-04T02:04:28.307Z,6.28
2019-02-04T02:06:58.073Z,6.80
2019-02-04T02:09:27.857Z,6.03
2019-02-04T02:11:57.617Z,6.62
2019-02-04T02:14:27.452Z,6.33
2019-02-04T02:16:57.237Z,6.22
2019-02-04T02:19:26.961Z,6.03
2019-02-04T02:21:56.730Z,6.08
2019-02-04T02:24:26.481Z,6.03
2019-02-04T02:26:56.597Z,6.42
2019-02-04T02:29:26.344Z,5.90
2019-02-04T02:31:56.174Z,6.37
2019-02-04T02:34:25.942Z,6.00
2019-02-04T02:36:55.672Z,6.35
2019-02-04T02:39:25.451Z,5.70
2019-02-04T02:41:55.493Z,6.17
2019-02-04T02:44:25.267Z,6.08
2019-02-04T02:46:55.013Z,6.17
2019-02-04T02:49:24.769Z,6.47
2019-02-04T02:51:54.525Z,5.65
2019-02-04T02:54:24.252Z,6.28
2019-02-04T02:57:06.556Z,6.75
2019-02-04T02:59:36.284Z,6.70
2019-02-04T03:02:06.087Z,6.10
2019-02-04T03:04:35.890Z,6.40
2019-02-04T03:07:05.954Z,6.45
2019-02-04T03:09:35.682Z,6.33
2019-02-04T03:12:05.407Z,6.60
2019-02-04T03:14:35.215Z,6.50
2019-02-04T03:17:04.938Z,6.25
2019-02-04T03:19:34.657Z,6.10
2019-02-04T03:22:04.467Z,6.12
2019-02-04T03:24:34.215Z,6.20
2019-02-04T03:27:03.970Z,6.22
2019-02-04T03:29:33.705Z,6.40
2019-02-04T03:32:03.478Z,5.45
2019-02-04T03:34:33.527Z,5.92
2019-02-04T03:37:03.281Z,6.83
2019-02-04T03:39:32.948Z,6.20
2019-02-04T03:42:02.793Z,5.78
2019-02-04T03:44:32.539Z,5.33
2019-02-04T03:47:02.307Z,5.60
2019-02-04T03:49:32.102Z,5.97
2019-02-04T03:52:01.863Z,6.30
2019-02-04T03:54:31.618Z,6.35
2019-02-04T03:57:01.311Z,5.87
2019-02-04T03:59:31.143Z,5.60
2019-02-04T04:02:01.198Z,6.40
2019-02-04T04:04:30.944Z,6.67
2019-02-04T04:07:00.721Z,5.85
2019-02-04T04:09:30.490Z,6.62
2019-02-04T04:12:00.253Z,6.33
2019-02-04T04:14:29.983Z,5.92
2019-02-04T04:16:59.731Z,6.17
2019-02-04T04:19:29.421Z,6.10
2019-02-04T04:21:59.175Z,5.75
2019-02-04T04:24:28.872Z,5.87
2019-02-04T04:26:58.622Z,6.28
2019-02-04T04:29:28.769Z,6.05
2019-02-04T04:31:58.532Z,5.53
2019-02-04T04:34:28.280Z,6.35
2019-02-04T04:36:58.030Z,5.95
2019-02-04T04:39:27.773Z,6.05
2019-02-04T04:41:57.535Z,6.67
2019-02-04T04:44:27.616Z,5.78
2019-02-04T04:46:57.319Z,6.37
2019-02-04T04:49:27.085Z,6.12
2019-02-04T04:51:56.827Z,6.35
2019-02-04T04:54:26.649Z,6.60
2019-02-04T04:56:56.395Z,6.33
2019-02-04T04:59:26.060Z,6.72
2019-02-04T05:01:56.903Z,6.83
2019-02-04T05:04:26.645Z,7.00
2019-02-04T05:06:56.457Z,7.20
2019-02-04T05:09:26.194Z,6.72
2019-02-04T05:11:56.443Z,6.17
2019-02-04T05:14:26.205Z,6.58
2019-02-04T05:16:55.980Z,7.05
2019-02-04T05:19:25.654Z,7.03
2019-02-04T05:21:55.423Z,7.15
2019-02-04T05:24:25.211Z,6.92
2019-02-04T05:26:54.939Z,7.80
2019-02-04T05:29:24.682Z,7.35
2019-02-04T05:31:54.438Z,7.90
2019-02-04T05:34:24.164Z,8.10
2019-02-04T05:36:54.377Z,7.60
2019-02-04T05:39:24.396Z,8.53
2019-02-04T05:41:54.136Z,9.93
2019-02-04T05:44:23.875Z,7.85
2019-02-04T05:46:53.623Z,9.35
2019-02-04T05:49:23.293Z,9.23
2019-02-04T05:51:55.103Z,10.53
2019-02-04T05:54:24.993Z,10.03
2019-02-04T05:56:54.723Z,9.45
2019-02-04T05:59:24.496Z,10.03
2019-02-04T06:01:54.241Z,9.20
2019-02-04T06:04:24.040Z,9.50
2019-02-04T06:06:54.231Z,8.90
2019-02-04T06:09:24.004Z,9.83
2019-02-04T06:11:54.763Z,11.93
2019-02-04T06:14:24.707Z,11.53
2019-02-04T06:16:54.480Z,11.57
2019-02-04T06:19:24.269Z,12.28
2019-02-04T06:21:54.036Z,12.65
2019-02-04T06:24:23.808Z,12.47
2019-02-04T06:26:53.557Z,12.13
2019-02-04T06:29:23.770Z,12.00
2019-02-04T06:31:53.678Z,11.68
2019-02-04T06:34:23.707Z,12.10
2019-02-04T06:36:53.493Z,11.63
2019-02-04T06:39:24.049Z,11.20
2019-02-04T06:41:53.817Z,10.55
2019-02-04T06:44:23.609Z,10.82
2019-02-04T06:46:53.383Z,9.78
2019-02-04T06:49:23.158Z,10.85
2019-02-04T06:51:52.839Z,11.45
2019-02-04T06:54:22.723Z,9.38
2019-02-04T06:56:52.483Z,10.15
2019-02-04T06:59:22.252Z,10.58
2019-02-04T07:01:52.441Z,10.72
2019-02-04T07:04:22.213Z,10.60
2019-02-04T07:06:53.667Z,11.45
2019-02-04T07:09:23.419Z,9.95
2019-02-04T07:11:53.192Z,10.50
2019-02-04T07:14:22.858Z,9.58
2019-02-04T07:16:52.620Z,8.95
2019-02-04T07:19:24.269Z,9.70
2019-02-04T07:21:53.824Z,10.00
2019-02-04T07:24:23.601Z,9.60
2019-02-04T07:26:53.373Z,8.98
2019-02-04T07:29:24.440Z,9.98
2019-02-04T07:31:54.228Z,10.18
2019-02-04T07:34:24.129Z,9.20
2019-02-04T07:36:53.914Z,8.35
2019-02-04T07:39:23.670Z,9.38
2019-02-04T07:41:53.434Z,9.00
2019-02-04T07:44:23.723Z,9.40
2019-02-04T07:46:53.466Z,9.35
2019-02-04T07:49:23.255Z,8.65
2019-02-04T07:51:53.007Z,9.35
2019-02-04T07:54:22.771Z,8.55
2019-02-04T07:56:52.494Z,8.88
2019-02-04T07:59:22.176Z,9.28
2019-02-04T08:01:51.966Z,8.15
2019-02-04T08:04:21.768Z,8.83
2019-02-04T08:06:51.609Z,7.65
2019-02-04T08:09:21.360Z,8.90
2019-02-04T08:11:51.108Z,8.98
2019-02-04T08:14:20.896Z,8.85
2019-02-04T08:16:50.611Z,9.30
2019-02-04T08:19:20.366Z,8.58
2019-02-04T08:21:51.192Z,8.55
2019-02-04T08:24:20.960Z,8.20
2019-02-04T08:26:51.025Z,9.13
2019-02-04T08:29:20.761Z,8.55
2019-02-04T08:31:50.614Z,7.80
2019-02-04T08:34:20.355Z,7.87
2019-02-04T08:36:50.127Z,8.73
2019-02-04T08:39:19.856Z,7.73
2019-02-04T08:41:49.801Z,7.80
2019-02-04T08:44:19.542Z,8.20
2019-02-04T08:46:49.314Z,8.40
2019-02-04T08:49:19.060Z,8.17
2019-02-04T08:51:48.847Z,8.50
2019-02-04T08:54:18.593Z,6.67
2019-02-04T08:56:48.577Z,7.80
2019-02-04T08:59:18.319Z,7.87
2019-02-04T09:01:48.072Z,8.07
2019-02-04T09:04:17.838Z,8.53
2019-02-04T09:06:47.570Z,8.60
2019-02-04T09:09:17.433Z,8.27
2019-02-04T09:11:47.362Z,7.80
2019-02-04T09:14:18.309Z,9.00
2019-02-04T09:16:47.977Z,8.67
2019-02-04T09:19:17.736Z,8.93
2019-02-04T09:21:47.475Z,8.97
2019-02-04T09:24:17.319Z,7.77
2019-02-04T09:26:47.052Z,8.37
2019-02-04T09:29:16.810Z,8.47
2019-02-04T09:31:46.567Z,9.33
2019-02-04T09:34:16.325Z,8.70
2019-02-04T09:36:46.101Z,8.87
2019-02-04T09:39:15.861Z,9.57
2019-02-04T09:41:46.543Z,8.30
2019-02-04T09:44:16.302Z,8.40
2019-02-04T09:46:46.065Z,8.53
2019-02-04T09:49:15.804Z,8.63
2019-02-04T09:51:45.547Z,8.00
2019-02-04T09:54:15.320Z,7.83
2019-02-04T09:56:45.203Z,7.47
2019-02-04T09:59:14.941Z,8.43
2019-02-04T10:01:44.704Z,7.60
2019-02-04T10:04:14.461Z,9.00
2019-02-04T10:06:44.241Z,8.30
2019-02-04T10:09:14.219Z,9.60
2019-02-04T10:11:43.994Z,8.73
2019-02-04T10:14:13.752Z,7.63
2019-02-04T10:16:43.508Z,8.90
2019-02-04T10:19:13.305Z,8.77
2019-02-04T10:21:43.050Z,8.93
2019-02-04T10:24:12.840Z,8.67
2019-02-04T10:26:42.560Z,8.20
2019-02-04T10:29:12.326Z,8.30
2019-02-04T10:31:42.119Z,8.03
2019-02-04T10:34:11.902Z,8.20
2019-02-04T10:36:41.965Z,8.67
2019-02-04T10:39:11.788Z,7.50
2019-02-04T10:41:41.528Z,6.80
2019-02-04T10:44:11.260Z,6.43
2019-02-04T10:46:40.981Z,7.17
2019-02-04T10:49:10.819Z,6.57
2019-02-04T10:51:40.562Z,5.93
2019-02-04T10:54:10.440Z,6.13
2019-02-04T10:56:40.271Z,7.43
2019-02-04T10:59:10.032Z,6.93
2019-02-04T11:01:39.764Z,7.30
2019-02-04T11:04:09.525Z,6.80
2019-02-04T11:06:39.243Z,6.40
2019-02-04T11:09:09.147Z,6.63
2019-02-04T11:11:39.153Z,6.47
2019-02-04T11:14:08.900Z,6.57
2019-02-04T11:16:38.612Z,7.40
2019-02-04T11:19:08.822Z,6.83
2019-02-04T11:21:38.568Z,5.87
2019-02-04T11:24:08.309Z,5.70
2019-02-04T11:26:38.089Z,5.73
2019-02-04T11:29:07.844Z,5.53
2019-02-04T11:31:37.600Z,5.83
2019-02-04T11:34:07.359Z,6.70
2019-02-04T11:36:37.320Z,7.30
2019-02-04T11:39:07.903Z,6.77
2019-02-04T11:41:37.652Z,7.80
2019-02-04T11:44:07.499Z,5.53
2019-02-04T11:46:37.755Z,6.03
2019-02-04T11:49:07.433Z,5.80
2019-02-04T11:51:37.199Z,6.20
2019-02-04T11:54:06.946Z,6.37
2019-02-04T11:56:37.802Z,5.50
2019-02-04T11:59:07.547Z,5.50
2019-02-04T12:01:37.317Z,5.47
2019-02-04T12:04:07.061Z,5.30
2019-02-04T12:06:36.887Z,4.80
2019-02-04T12:09:07.751Z,3.93
2019-02-04T12:11:37.510Z,4.33
2019-02-04T12:14:07.235Z,4.40
2019-02-04T12:16:36.983Z,4.57
2019-02-04T12:19:06.668Z,5.10
2019-02-04T12:21:36.447Z,5.17
2019-02-04T12:24:06.200Z,4.80
2019-02-04T12:26:35.939Z,3.43
2019-02-04T12:29:05.910Z,3.60
2019-02-04T12:31:35.663Z,3.05
2019-02-04T12:34:05.435Z,3.17
2019-02-04T12:36:35.206Z,4.00
2019-02-04T12:39:08.530Z,3.70
2019-02-04T12:41:38.282Z,2.65
2019-02-04T12:44:08.027Z,2.90
2019-02-04T12:46:37.787Z,3.57
2019-02-04T12:49:07.536Z,3.17
2019-02-04T12:51:37.300Z,2.80
2019-02-04T12:54:07.127Z,2.10
2019-02-04T12:56:37.099Z,2.45
2019-02-04T12:59:06.848Z,2.42
2019-02-04T13:01:36.600Z,3.60
2019-02-04T13:04:06.448Z,3.15
2019-02-04T13:06:36.211Z,2.58
2019-02-04T13:09:07.579Z,1.90
2019-02-04T13:11:37.318Z,2.30
2019-02-04T13:14:07.082Z,2.00
2019-02-04T13:16:36.845Z,2.25
2019-02-04T13:19:06.612Z,2.20
2019-02-04T13:21:45.202Z,2.33
2019-02-04T13:24:08.715Z,2.60
2019-02-04T13:26:38.454Z,4.20
2019-02-04T13:29:08.224Z,4.58
2019-02-04T13:31:37.976Z,2.67
2019-02-04T13:34:07.721Z,2.33
2019-02-04T13:36:37.464Z,3.22
2019-02-04T13:39:08.354Z,3.12
2019-02-04T13:41:39.716Z,3.00
2019-02-04T13:44:09.463Z,3.35
2019-02-04T13:46:39.220Z,2.87
2019-02-04T13:49:10.121Z,2.30
2019-02-04T13:51:40.102Z,2.60
2019-02-04T13:54:09.841Z,2.72
2019-02-04T13:56:39.585Z,2.55
2019-02-04T13:59:09.355Z,2.80
2019-02-04T14:01:40.720Z,2.75
2019-02-04T14:04:10.538Z,3.20
2019-02-04T14:06:40.355Z,2.98
2019-02-04T14:09:13.374Z,3.65
2019-02-04T14:11:43.122Z,3.05
2019-02-04T14:14:12.876Z,3.00
2019-02-04T14:16:42.580Z,3.20
2019-02-04T14:19:12.327Z,3.27
2019-02-04T14:21:42.017Z,3.33
2019-02-04T14:24:11.812Z,2.70
2019-02-04T14:26:41.663Z,4.33
2019-02-04T14:29:11.398Z,3.27
2019-02-04T14:31:41.433Z,2.90
2019-02-04T14:34:11.176Z,3.00
2019-02-04T14:36:40.917Z,2.60
2019-02-04T14:39:12.326Z,3.05
2019-02-04T14:41:42.108Z,3.15
2019-02-04T14:44:14.618Z,3.37
2019-02-04T14:46:50.699Z,3.25
2019-02-04T14:49:26.202Z,2.67
2019-02-04T14:52:23.749Z,2.40
2019-02-04T14:55:17.914Z,2.83
2019-02-04T14:58:02.216Z,2.65
2019-02-04T15:00:55.361Z,3.00
2019-02-04T15:03:46.384Z,2.85
2019-02-04T15:06:22.172Z,2.62
2019-02-04T15:09:00.823Z,3.52
2019-02-04T15:11:40.503Z,2.85
2019-02-04T15:14:16.054Z,2.33
2019-02-04T15:16:52.022Z,2.80
2019-02-04T15:19:37.763Z,2.80
2019-02-04T15:22:34.889Z,3.35
2019-02-04T15:25:19.964Z,2.92
2019-02-04T15:28:05.069Z,3.55
2019-02-04T15:30:49.363Z,4.20
2019-02-04T15:33:31.026Z,4.08
2019-02-04T15:36:27.579Z,4.03
2019-02-04T15:39:00.601Z,4.20
2019-02-04T15:41:37.474Z,4.45
2019-02-04T15:44:21.892Z,5.67
2019-02-04T15:47:06.980Z,5.25
2019-02-04T15:50:01.002Z,5.08
2019-02-04T15:52:30.950Z,5.92
2019-02-04T15:55:02.040Z,5.75
2019-02-04T15:57:31.813Z,5.97
2019-02-04T16:00:01.545Z,5.58
2019-02-04T16:02:32.268Z,6.75
2019-02-04T16:05:01.959Z,6.15
2019-02-04T16:07:31.704Z,4.95
2019-02-04T16:10:01.643Z,5.22
2019-02-04T16:12:31.401Z,5.35
2019-02-04T16:15:01.142Z,5.40
2019-02-04T16:17:30.954Z,5.95
2019-02-04T16:20:00.694Z,5.90
2019-02-04T16:22:30.440Z,5.12
2019-02-04T16:25:00.348Z,4.97
2019-02-04T16:27:30.101Z,5.62
2019-02-04T16:29:59.872Z,5.33
2019-02-04T16:32:29.620Z,5.28
2019-02-04T16:34:59.387Z,4.95
2019-02-04T16:37:29.440Z,5.30
2019-02-04T16:39:59.236Z,4.90
2019-02-04T16:42:28.963Z,4.55
2019-02-04T16:44:58.731Z,5.40
2019-02-04T16:47:28.463Z,14.75
2019-02-04T16:49:58.137Z,7.60
2019-02-04T16:52:28.286Z,9.50
2019-02-04T16:54:58.032Z,9.05
2019-02-04T16:57:27.792Z,9.55
2019-02-04T16:59:57.520Z,7.22
2019-02-04T17:02:27.282Z,5.97
2019-02-04T17:04:57.029Z,6.78
2019-02-04T17:07:26.957Z,5.42
2019-02-04T17:09:56.713Z,6.10
2019-02-04T17:12:26.462Z,6.33
2019-02-04T17:14:56.208Z,5.90
2019-02-04T17:17:25.959Z,6.35
2019-02-04T17:19:55.694Z,6.08
2019-02-04T17:22:25.441Z,5.80
2019-02-04T17:24:55.175Z,6.20
2019-02-04T17:27:24.939Z,7.20
2019-02-04T17:29:54.672Z,7.25
2019-02-04T17:32:24.356Z,7.28
2019-02-04T17:34:54.388Z,6.72
2019-02-04T17:37:24.099Z,7.53
2019-02-04T17:39:53.835Z,7.78
2019-02-04T17:42:23.575Z,7.17
2019-02-04T17:44:53.317Z,7.47
2019-02-04T17:47:23.104Z,6.95
2019-02-04T17:49:54.116Z,8.63
2019-02-04T17:52:23.868Z,7.08
2019-02-04T17:54:53.630Z,7.15
2019-02-04T17:57:23.378Z,7.00
2019-02-04T17:59:53.133Z,9.30
2019-02-04T18:02:22.904Z,7.33
2019-02-04T18:04:52.654Z,8.25
2019-02-04T18:07:22.399Z,8.00
2019-02-04T18:09:52.165Z,7.28
2019-02-04T18:12:21.907Z,7.95
2019-02-04T18:14:51.689Z,7.05
2019-02-04T18:17:21.791Z,9.48
2019-02-04T18:19:51.469Z,8.53
2019-02-04T18:22:21.240Z,8.70
2019-02-04T18:24:51.104Z,9.13
2019-02-04T18:27:20.847Z,8.23
2019-02-04T18:29:51.660Z,8.93
2019-02-04T18:32:21.422Z,7.22
2019-02-04T18:34:51.493Z,7.85
2019-02-04T18:37:21.621Z,8.05
2019-02-04T18:39:51.491Z,8.30
2019-02-04T18:42:21.417Z,8.45
2019-02-04T18:44:51.664Z,7.95
2019-02-04T18:47:21.424Z,7.67
2019-02-04T18:49:51.201Z,8.38
2019-02-04T18:52:20.996Z,7.97
2019-02-04T18:54:50.749Z,8.40
2019-02-04T18:57:21.877Z,7.55
2019-02-04T18:59:51.632Z,8.40
2019-02-04T19:02:21.367Z,8.00
2019-02-04T19:04:51.134Z,9.85
2019-02-04T19:07:20.874Z,12.80
2019-02-04T19:09:50.638Z,11.10
2019-02-04T19:12:20.392Z,10.28
2019-02-04T19:14:50.087Z,9.25
2019-02-04T19:17:19.913Z,8.43
2019-02-04T19:19:49.648Z,9.18
2019-02-04T19:22:19.418Z,9.53
2019-02-04T19:24:49.160Z,9.33
2019-02-04T19:27:18.910Z,11.15
2019-02-04T19:29:48.724Z,14.87
2019-02-04T19:32:18.469Z,14.45
2019-02-04T19:34:48.242Z,20.32
2019-02-04T19:37:18.005Z,16.65
2019-02-04T19:39:47.960Z,12.20
2019-02-04T19:42:17.900Z,12.03
2019-02-04T19:44:50.819Z,11.10
2019-02-04T19:47:20.604Z,10.80
2019-02-04T19:49:50.360Z,9.85
2019-02-04T19:52:20.133Z,10.55
2019-02-04T19:54:49.902Z,11.03
2019-02-04T19:57:19.672Z,11.25
2019-02-04T19:59:49.464Z,16.85
2019-02-04T20:02:19.220Z,17.35
2019-02-04T20:04:49.085Z,20.43
2019-02-04T20:07:18.828Z,21.17
2019-02-04T20:09:48.617Z,19.92
2019-02-04T20:12:18.939Z,16.73
2019-02-04T20:14:56.266Z,19.80
2019-02-04T20:17:26.084Z,17.35
2019-02-04T20:19:57.535Z,16.80
2019-02-04T20:22:27.283Z,20.50
2019-02-04T20:24:57.038Z,19.92
2019-02-04T20:27:27.194Z,16.70
2019-02-04T20:29:57.077Z,23.22
2019-02-04T20:32:26.848Z,16.62
2019-02-04T20:34:57.019Z,13.65
2019-02-04T20:37:26.780Z,13.88
2019-02-04T20:39:56.527Z,13.32
2019-02-04T20:42:26.234Z,12.70
2019-02-04T20:44:55.992Z,13.95
2019-02-04T20:47:25.764Z,13.40
2019-02-04T20:49:56.740Z,13.85
2019-02-04T20:52:27.234Z,13.13
2019-02-04T20:54:58.078Z,13.88
2019-02-04T20:57:29.049Z,14.80
2019-02-04T21:00:01.511Z,13.58
2019-02-04T21:02:32.798Z,13.88
2019-02-04T21:05:06.196Z,14.40
2019-02-04T21:07:38.843Z,15.08
2019-02-04T21:10:12.268Z,15.48
2019-02-04T21:12:43.136Z,16.95
2019-02-04T21:15:15.671Z,16.65
2019-02-04T21:17:48.650Z,17.48
2019-02-04T21:20:27.913Z,15.38
2019-02-04T21:23:00.366Z,22.52
2019-02-04T21:25:32.028Z,22.40
2019-02-04T21:28:03.331Z,24.55
2019-02-04T21:30:38.324Z,24.05
2019-02-04T21:33:08.953Z,18.95
2019-02-04T21:35:38.774Z,17.48
2019-02-04T21:38:10.392Z,17.10
2019-02-04T21:40:41.900Z,15.38
2019-02-04T21:43:13.268Z,18.62
2019-02-04T21:45:44.185Z,18.73
2019-02-04T21:48:14.769Z,17.57
2019-02-04T21:50:45.623Z,18.05
2019-02-04T21:53:17.664Z,17.35
2019-02-04T21:58:44.697Z,17.48
2019-02-04T22:01:15.824Z,15.80
2019-02-04T22:03:45.689Z,15.18
2019-02-04T22:06:16.153Z,16.02
2019-02-04T22:08:45.956Z,15.05
2019-02-04T22:11:16.036Z,14.55
2019-02-04T22:13:45.920Z,14.25
2019-02-04T22:16:15.689Z,14.25
2019-02-04T22:18:45.454Z,15.55
2019-02-04T22:21:15.219Z,16.48
2019-02-04T22:23:45.965Z,16.52
2019-02-04T22:26:15.841Z,16.15
2019-02-04T22:28:45.588Z,16.57
2019-02-04T22:31:15.563Z,16.00
2019-02-04T22:33:45.287Z,16.65
2019-02-04T22:36:15.050Z,16.65
2019-02-04T22:38:44.844Z,15.75
2019-02-04T22:41:14.604Z,14.55
2019-02-04T22:43:44.382Z,15.00
2019-02-04T22:46:14.176Z,15.45
2019-02-04T22:48:44.452Z,15.83
2019-02-04T22:51:14.282Z,14.98
2019-02-04T22:53:44.058Z,14.68
2019-02-04T22:56:13.806Z,15.55
2019-02-04T22:58:43.976Z,13.60
2019-02-04T23:01:20.152Z,14.18
2019-02-04T23:03:49.900Z,15.25
2019-02-04T23:06:19.669Z,14.90
2019-02-04T23:08:50.330Z,15.05
2019-02-04T23:11:20.428Z,14.50
2019-02-04T23:13:50.177Z,14.53
2019-02-04T23:16:19.945Z,14.18
2019-02-04T23:18:49.708Z,13.72
2019-02-04T23:21:19.467Z,14.20
2019-02-04T23:23:49.243Z,14.35
2019-02-04T23:26:18.978Z,14.15
2019-02-04T23:28:48.747Z,14.33
2019-02-04T23:31:18.482Z,13.38
2019-02-04T23:33:48.265Z,13.83
2019-02-04T23:36:18.031Z,13.65
2019-02-04T23:38:48.197Z,13.58
2019-02-04T23:41:17.940Z,12.23
2019-02-04T23:43:47.721Z,13.72
2019-02-04T23:46:17.459Z,13.22
2019-02-04T23:48:47.220Z,14.70
2019-02-04T23:51:16.984Z,14.03
2019-02-04T23:53:47.050Z,14.60
2019-02-04T23:56:16.815Z,13.88
2019-02-04T23:58:46.584Z,13.50
